Time;durP1;ratioP1;P1;durP2;ratioP2;P2;SDS_P1;SDS_P2;PMS_P1;PMS_P2;Temp;Humidity;BMP_temperature;BMP_pressure;BME280_temperature;BME280_humidity;BME280_pressure;Samples;Min_cycle;Max_cycle;Signal;HPM_P1;HPM_P2
2022/11/15 00:01:20;;;;;;;16.13;7.07;;;;;;;;;;6170160;23;20196;-90
2022/11/15 00:04:44;;;;;;;17.37;8.13;;;;;;;;;;6170696;23;20216;-91
2022/11/15 00:08:09;;;;;;;16.87;7.57;;;;;;;;;;6170672;23;20168;-89
2022/11/15 00:11:33;;;;;;;14.83;7.43;;;;;;;;;;6169093;23;20200;-92
2022/11/15 00:14:57;;;;;;;17.40;7.50;;;;;;;;;;6169655;23;20233;-90
2022/11/15 00:18:22;;;;;;;15.77;6.60;;;;;;;;;;6170223;23;20172;-91
2022/11/15 00:21:46;;;;;;;16.57;7.40;;;;;;;;;;6171195;23;20202;-90
2022/11/15 00:25:10;;;;;;;17.37;7.93;;;;;;;;;;6170376;23;20952;-90
2022/11/15 00:28:35;;;;;;;13.00;6.67;;;;;;;;;;6169094;23;20201;-89
2022/11/15 00:31:58;;;;;;;14.77;7.43;;;;;;;;;;6170958;23;20192;-89
2022/11/15 00:35:24;;;;;;;14.30;7.27;;;;;;;;;;6167827;23;21028;-89
2022/11/15 00:38:48;;;;;;;16.53;7.73;;;;;;;;;;6168229;23;20242;-89
2022/11/15 00:42:12;;;;;;;20.47;7.43;;;;;;;;;;6169618;23;20192;-90
2022/11/15 00:45:37;;;;;;;18.13;7.03;;;;;;;;;;6169193;23;20196;-89
2022/11/15 00:49:01;;;;;;;14.97;7.27;;;;;;;;;;6171002;23;20193;-89
2022/11/15 00:52:26;;;;;;;17.13;6.87;;;;;;;;;;6170256;23;20244;-88
2022/11/15 00:55:51;;;;;;;13.13;7.03;;;;;;;;;;6170080;23;20224;-92
2022/11/15 00:59:14;;;;;;;17.10;7.23;;;;;;;;;;6170242;23;20193;-89
2022/11/15 01:02:38;;;;;;;16.27;6.93;;;;;;;;;;6168706;23;20193;-91
2022/11/15 01:06:02;;;;;;;13.83;6.87;;;;;;;;;;6170033;23;20192;-89
2022/11/15 01:09:28;;;;;;;16.93;6.93;;;;;;;;;;6169217;23;20172;-91
2022/11/15 01:12:52;;;;;;;17.03;7.10;;;;;;;;;;6169804;23;20172;-89
2022/11/15 01:16:18;;;;;;;17.67;7.30;;;;;;;;;;6170167;23;20197;-89
2022/11/15 01:19:42;;;;;;;16.50;7.93;;;;;;;;;;6169382;23;20173;-89
2022/11/15 01:23:06;;;;;;;15.47;7.00;;;;;;;;;;6169234;23;20180;-90
2022/11/15 01:26:32;;;;;;;14.93;6.73;;;;;;;;;;6169331;23;20177;-89
2022/11/15 01:29:56;;;;;;;17.00;7.63;;;;;;;;;;6169435;23;20180;-89
2022/11/15 01:33:24;;;;;;;17.53;8.07;;;;;;;;;;6169653;23;20177;-88
2022/11/15 01:36:48;;;;;;;17.07;7.67;;;;;;;;;;6168387;23;20219;-90
2022/11/15 01:40:12;;;;;;;16.13;8.23;;;;;;;;;;6169292;23;20608;-90
2022/11/15 01:43:38;;;;;;;19.17;7.47;;;;;;;;;;6167500;23;20216;-89
2022/11/15 01:47:08;;;;;;;15.30;7.53;;;;;;;;;;6166465;23;20619;-89
2022/11/15 01:50:33;;;;;;;17.53;7.93;;;;;;;;;;6168245;23;20208;-89
2022/11/15 01:53:57;;;;;;;17.03;7.77;;;;;;;;;;6167443;23;20241;-92
2022/11/15 01:57:21;;;;;;;17.87;7.07;;;;;;;;;;6169205;23;20224;-90
2022/11/15 02:00:47;;;;;;;17.07;7.67;;;;;;;;;;6168597;23;20201;-90
2022/11/15 02:04:14;;;;;;;17.97;7.33;;;;;;;;;;6169911;23;20284;-89
2022/11/15 02:07:38;;;;;;;16.33;7.37;;;;;;;;;;6169469;23;20156;-90
2022/11/15 02:11:02;;;;;;;18.97;7.77;;;;;;;;;;6169056;23;20188;-88
2022/11/15 02:14:27;;;;;;;21.30;8.17;;;;;;;;;;6169380;23;20188;-90
2022/11/15 02:18:05;;;;;;;16.73;7.60;;;;;;;;;;6168859;23;20160;-90
2022/11/15 02:21:38;;;;;;;15.87;7.17;;;;;;;;;;6168421;23;20172;-90
2022/11/15 02:25:16;;;;;;;16.97;7.03;;;;;;;;;;6169262;23;20168;-90
2022/11/15 02:29:00;;;;;;;15.33;7.20;;;;;;;;;;6168748;23;20208;-89
2022/11/15 02:32:29;;;;;;;16.23;7.50;;;;;;;;;;6169219;23;20625;-89
2022/11/15 02:35:56;;;;;;;14.70;6.67;;;;;;;;;;6168321;23;20191;-89
2022/11/15 02:39:23;;;;;;;18.77;7.73;;;;;;;;;;6168142;23;20193;-90
2022/11/15 02:50:23;;;;;;;15.50;7.57;;;;;;;;;;6172231;23;20165;-89
2022/11/15 02:53:47;;;;;;;20.50;8.10;;;;;;;;;;6170428;23;20175;-89
2022/11/15 02:57:14;;;;;;;19.07;8.20;;;;;;;;;;6171024;23;20235;-89
2022/11/15 03:00:42;;;;;;;21.10;8.33;;;;;;;;;;6171553;23;20161;-89
2022/11/15 03:04:12;;;;;;;18.80;8.63;;;;;;;;;;6169214;23;20244;-89
2022/11/15 03:07:39;;;;;;;19.43;8.73;;;;;;;;;;6170429;23;20588;-89
2022/11/15 03:11:05;;;;;;;24.67;8.83;;;;;;;;;;6170555;23;20200;-91
2022/11/15 03:14:32;;;;;;;18.47;8.20;;;;;;;;;;6170106;23;20177;-89
2022/11/15 03:18:00;;;;;;;19.17;7.93;;;;;;;;;;6169686;23;20504;-90
2022/11/15 03:21:24;;;;;;;20.97;8.37;;;;;;;;;;6169893;23;20173;-90
2022/11/15 03:24:53;;;;;;;20.77;8.27;;;;;;;;;;6169078;23;20208;-90
2022/11/15 03:28:20;;;;;;;33.30;9.00;;;;;;;;;;6169127;23;20164;-89
2022/11/15 03:31:49;;;;;;;19.00;8.03;;;;;;;;;;6169468;23;20660;-89
2022/11/15 03:35:14;;;;;;;24.20;8.97;;;;;;;;;;6169463;23;20168;-88
2022/11/15 03:38:39;;;;;;;23.23;8.30;;;;;;;;;;6169886;23;20173;-88
2022/11/15 03:42:10;;;;;;;38.40;9.23;;;;;;;;;;6169155;23;20169;-89
2022/11/15 03:46:00;;;;;;;35.93;8.20;;;;;;;;;;6169068;23;20168;-90
2022/11/15 03:49:26;;;;;;;32.27;8.50;;;;;;;;;;6168462;23;20180;-88
2022/11/15 03:52:51;;;;;;;20.80;8.83;;;;;;;;;;6169829;23;20246;-89
2022/11/15 03:56:16;;;;;;;30.03;7.83;;;;;;;;;;6170726;23;20192;-88
2022/11/15 03:59:41;;;;;;;21.63;8.47;;;;;;;;;;6170180;23;20217;-92
2022/11/15 04:03:07;;;;;;;34.70;8.53;;;;;;;;;;6171739;23;20176;-91
2022/11/15 04:06:31;;;;;;;22.10;8.37;;;;;;;;;;6169137;23;20173;-89
2022/11/15 04:10:05;;;;;;;32.67;8.87;;;;;;;;;;6168899;23;20589;-89
2022/11/15 04:13:29;;;;;;;38.70;8.77;;;;;;;;;;6168462;23;20635;-89
2022/11/15 04:16:54;;;;;;;21.20;8.33;;;;;;;;;;6170993;23;20567;-90
2022/11/15 04:24:13;;;;;;;25.50;8.53;;;;;;;;;;6170854;23;20161;-90
2022/11/15 04:27:37;;;;;;;25.53;8.73;;;;;;;;;;6170300;23;20169;-90
2022/11/15 04:31:01;;;;;;;21.90;8.37;;;;;;;;;;6170505;23;20280;-88
2022/11/15 04:34:29;;;;;;;30.83;9.03;;;;;;;;;;6172254;23;20157;-89
2022/11/15 04:37:53;;;;;;;23.10;8.30;;;;;;;;;;6169420;23;20269;-88
2022/11/15 04:41:17;;;;;;;21.73;8.23;;;;;;;;;;6168646;23;20176;-89
2022/11/15 04:44:42;;;;;;;19.17;7.63;;;;;;;;;;6168640;23;20204;-88
2022/11/15 04:48:06;;;;;;;21.90;8.47;;;;;;;;;;6169528;23;20156;-90
2022/11/15 04:51:32;;;;;;;16.23;7.30;;;;;;;;;;6170429;23;20213;-89
2022/11/15 04:54:56;;;;;;;15.27;6.93;;;;;;;;;;6168090;23;20168;-88
2022/11/15 04:58:20;;;;;;;22.33;7.40;;;;;;;;;;6169726;23;20213;-88
2022/11/15 05:01:45;;;;;;;26.27;7.50;;;;;;;;;;6169618;23;20156;-90
2022/11/15 05:05:09;;;;;;;24.93;7.53;;;;;;;;;;6169901;23;20615;-90
2022/11/15 05:08:34;;;;;;;18.07;7.47;;;;;;;;;;6170111;23;20186;-88
2022/11/15 05:11:59;;;;;;;24.83;9.00;;;;;;;;;;6194252;23;20168;-89
2022/11/15 05:15:23;;;;;;;33.17;8.40;;;;;;;;;;6168491;23;20188;-89
2022/11/15 05:18:47;;;;;;;24.93;8.27;;;;;;;;;;6169749;23;20172;-89
2022/11/15 05:22:11;;;;;;;28.37;8.17;;;;;;;;;;6169703;23;20189;-89
2022/11/15 05:25:37;;;;;;;21.90;7.80;;;;;;;;;;6170491;23;20192;-88
2022/11/15 05:29:02;;;;;;;40.27;8.70;;;;;;;;;;6168486;23;20168;-90
2022/11/15 05:32:30;;;;;;;61.70;8.40;;;;;;;;;;6170622;23;20208;-89
2022/11/15 05:35:56;;;;;;;35.53;8.77;;;;;;;;;;6169241;23;20549;-90
2022/11/15 05:39:20;;;;;;;24.90;7.93;;;;;;;;;;6169283;23;20222;-90
2022/11/15 05:42:46;;;;;;;24.43;7.67;;;;;;;;;;6169117;23;20165;-88
2022/11/15 05:46:16;;;;;;;28.43;7.67;;;;;;;;;;6168195;23;20173;-89
2022/11/15 05:49:41;;;;;;;17.87;7.80;;;;;;;;;;6168420;23;20176;-88
2022/11/15 05:53:06;;;;;;;28.27;7.43;;;;;;;;;;6168900;23;20200;-90
2022/11/15 05:56:31;;;;;;;24.50;8.00;;;;;;;;;;6170486;23;20245;-90
2022/11/15 05:59:57;;;;;;;33.40;8.60;;;;;;;;;;6169834;23;20222;-89
2022/11/15 06:03:22;;;;;;;30.93;7.53;;;;;;;;;;6168011;23;20180;-88
2022/11/15 06:06:46;;;;;;;22.23;7.23;;;;;;;;;;6169066;23;20237;-88
2022/11/15 06:10:10;;;;;;;43.67;9.27;;;;;;;;;;6169006;23;20177;-90
2022/11/15 06:13:35;;;;;;;34.30;8.20;;;;;;;;;;6167398;23;20188;-90
2022/11/15 06:17:03;;;;;;;34.77;7.57;;;;;;;;;;6168784;23;20243;-92
2022/11/15 06:20:27;;;;;;;62.60;8.33;;;;;;;;;;6170218;23;20208;-89
2022/11/15 06:23:52;;;;;;;45.27;7.67;;;;;;;;;;6167591;23;20620;-90
2022/11/15 06:27:16;;;;;;;53.90;7.53;;;;;;;;;;6169303;23;20219;-89
2022/11/15 06:30:40;;;;;;;21.63;6.80;;;;;;;;;;6168036;23;20177;-90
2022/11/15 06:34:09;;;;;;;41.50;7.57;;;;;;;;;;6170571;23;20175;-90
2022/11/15 06:37:47;;;;;;;99.87;12.00;;;;;;;;;;6169630;23;20195;-89
2022/11/15 06:41:12;;;;;;;60.23;9.67;;;;;;;;;;6169218;23;20160;-89
2022/11/15 06:44:36;;;;;;;48.97;7.93;;;;;;;;;;6169746;23;20240;-89
2022/11/15 06:48:03;;;;;;;30.00;8.30;;;;;;;;;;6169962;23;20497;-89
2022/11/15 06:51:29;;;;;;;36.33;7.90;;;;;;;;;;6169659;23;20611;-88
2022/11/15 06:54:54;;;;;;;57.13;13.17;;;;;;;;;;6168720;23;20224;-87
2022/11/15 06:58:17;;;;;;;78.67;10.93;;;;;;;;;;6168882;23;20281;-88
2022/11/15 07:01:42;;;;;;;25.23;8.17;;;;;;;;;;6166634;23;20180;-89
2022/11/15 07:05:06;;;;;;;77.13;12.03;;;;;;;;;;6168534;23;20168;-88
2022/11/15 07:08:31;;;;;;;27.97;7.60;;;;;;;;;;6169274;23;20180;-91
2022/11/15 07:11:56;;;;;;;40.00;8.00;;;;;;;;;;6165650;23;20173;-89
2022/11/15 07:15:20;;;;;;;44.47;11.53;;;;;;;;;;6164956;23;20168;-90
2022/11/15 07:18:45;;;;;;;23.03;8.70;;;;;;;;;;6166224;23;20192;-89
2022/11/15 07:22:09;;;;;;;19.10;6.77;;;;;;;;;;6168252;23;20225;-89
2022/11/15 07:25:35;;;;;;;24.80;7.83;;;;;;;;;;6165612;23;20184;-88
2022/11/15 07:28:59;;;;;;;31.50;8.03;;;;;;;;;;6166881;23;20169;-88
2022/11/15 07:32:25;;;;;;;53.43;9.27;;;;;;;;;;6171614;23;20217;-89
2022/11/15 07:35:54;;;;;;;21.70;8.07;;;;;;;;;;6170827;23;20173;-90
2022/11/15 07:39:18;;;;;;;38.20;7.97;;;;;;;;;;6168926;23;20234;-90
2022/11/15 07:42:54;;;;;;;19.03;8.17;;;;;;;;;;6170707;23;20181;-90
2022/11/15 07:46:43;;;;;;;72.40;8.90;;;;;;;;;;6169959;23;20203;-89
2022/11/15 07:50:08;;;;;;;24.17;8.40;;;;;;;;;;6167394;23;20280;-88
2022/11/15 07:53:32;;;;;;;33.10;10.30;;;;;;;;;;6169663;23;20168;-89
2022/11/15 07:56:55;;;;;;;24.23;7.90;;;;;;;;;;6174287;23;20640;-90
2022/11/15 08:00:21;;;;;;;24.70;8.57;;;;;;;;;;6169981;23;20225;-89
2022/11/15 08:03:46;;;;;;;29.50;9.23;;;;;;;;;;6168542;23;20161;-89
2022/11/15 08:07:10;;;;;;;36.87;10.73;;;;;;;;;;6169730;23;20224;-89
2022/11/15 08:10:34;;;;;;;16.43;7.77;;;;;;;;;;6168388;23;20169;-89
2022/11/15 08:13:58;;;;;;;37.30;8.27;;;;;;;;;;6168241;23;20200;-90
2022/11/15 08:17:24;;;;;;;30.97;8.37;;;;;;;;;;6171831;23;20231;-92
2022/11/15 08:20:53;;;;;;;30.37;9.90;;;;;;;;;;6169019;23;20194;-87
2022/11/15 08:24:17;;;;;;;27.67;9.30;;;;;;;;;;6169220;23;20215;-90
2022/11/15 08:27:41;;;;;;;36.53;7.60;;;;;;;;;;6167594;23;20189;-90
2022/11/15 08:31:05;;;;;;;19.80;7.40;;;;;;;;;;6169109;23;20234;-89
2022/11/15 08:34:32;;;;;;;21.40;8.90;;;;;;;;;;6169324;23;20169;-89
2022/11/15 08:37:57;;;;;;;17.37;8.13;;;;;;;;;;6170135;23;20252;-89
2022/11/15 08:41:26;;;;;;;18.53;8.10;;;;;;;;;;6169179;23;20196;-87
2022/11/15 08:44:52;;;;;;;19.70;8.23;;;;;;;;;;6166761;23;20180;-89
2022/11/15 08:48:16;;;;;;;22.03;8.53;;;;;;;;;;6170294;23;20536;-88
2022/11/15 08:51:42;;;;;;;19.90;7.83;;;;;;;;;;6172854;23;20181;-90
2022/11/15 08:58:46;;;;;;;22.53;9.23;;;;;;;;;;6167964;23;20192;-90
2022/11/15 09:02:14;;;;;;;22.73;8.40;;;;;;;;;;6169340;23;20168;-89
2022/11/15 09:05:40;;;;;;;40.33;9.67;;;;;;;;;;6168613;23;20446;-90
2022/11/15 09:09:05;;;;;;;26.67;9.13;;;;;;;;;;6170496;23;20212;-91
2022/11/15 09:12:32;;;;;;;26.40;8.20;;;;;;;;;;6171128;23;20188;-89
2022/11/15 09:15:59;;;;;;;20.77;8.20;;;;;;;;;;6171998;23;20169;-90
2022/11/15 09:19:23;;;;;;;24.63;8.33;;;;;;;;;;6170915;23;20173;-90
2022/11/15 09:22:47;;;;;;;16.93;7.83;;;;;;;;;;6170642;23;20169;-88
2022/11/15 09:26:13;;;;;;;16.00;8.07;;;;;;;;;;6171832;23;20165;-89
2022/11/15 09:29:38;;;;;;;20.33;8.47;;;;;;;;;;6172063;23;20172;-92
2022/11/15 09:33:13;;;;;;;17.50;8.70;;;;;;;;;;6171938;23;20173;-91
2022/11/15 09:36:38;;;;;;;19.23;8.23;;;;;;;;;;6171067;23;20157;-90
2022/11/15 09:40:02;;;;;;;26.60;10.90;;;;;;;;;;6171573;23;20250;-90
2022/11/15 09:43:34;;;;;;;26.60;10.93;;;;;;;;;;6172144;23;20237;-90
2022/11/15 09:47:31;;;;;;;18.10;8.77;;;;;;;;;;6172015;23;20180;-89
2022/11/15 09:50:59;;;;;;;15.53;7.87;;;;;;;;;;6034820;23;20254;-88
2022/11/15 09:54:07;;;;;;;18.57;8.53;;;;;;;;;;6066855;23;20236;-90
2022/11/15 09:57:14;;;;;;;21.20;9.63;;;;;;;;;;6187286;23;20184;-88
2022/11/15 10:00:23;;;;;;;18.90;8.00;;;;;;;;;;6169934;23;20252;-92
2022/11/15 10:03:29;;;;;;;19.67;9.00;;;;;;;;;;6170033;23;20659;-87
2022/11/15 10:06:37;;;;;;;15.53;8.27;;;;;;;;;;6171957;23;20497;-88
2022/11/15 10:09:46;;;;;;;17.90;9.23;;;;;;;;;;6170279;23;20679;-90
2022/11/15 10:12:52;;;;;;;20.23;10.00;;;;;;;;;;6170582;23;20201;-86
2022/11/15 10:16:05;;;;;;;22.50;9.10;;;;;;;;;;6171095;23;20280;-88
2022/11/15 10:19:15;;;;;;;16.60;8.80;;;;;;;;;;6170210;23;20196;-90
2022/11/15 10:22:27;;;;;;;15.10;8.40;;;;;;;;;;6171846;23;20617;-90
2022/11/15 10:25:33;;;;;;;20.30;8.90;;;;;;;;;;6172101;23;20171;-88
2022/11/15 10:28:38;;;;;;;20.13;10.68;;;;;;;;;;6188032;23;20264;-90
2022/11/15 10:31:45;;;;;;;20.13;9.70;;;;;;;;;;6172213;23;20168;-92
2022/11/15 10:34:54;;;;;;;24.52;10.43;;;;;;;;;;6173169;23;20163;-90
2022/11/15 10:38:07;;;;;;;19.70;9.10;;;;;;;;;;6175797;23;20200;-90
2022/11/15 10:41:13;;;;;;;21.33;9.70;;;;;;;;;;6174089;23;20196;-91
2022/11/15 10:44:25;;;;;;;22.35;9.80;;;;;;;;;;6177054;23;20172;-89
2022/11/15 10:47:34;;;;;;;22.55;10.10;;;;;;;;;;6192111;23;20208;-91
2022/11/15 10:50:40;;;;;;;31.90;12.98;;;;;;;;;;6173630;23;20753;-88
2022/11/15 10:53:46;;;;;;;45.22;19.10;;;;;;;;;;6173782;23;20593;-90
2022/11/15 10:56:57;;;;;;;25.27;11.07;;;;;;;;;;6176478;23;20156;-89
2022/11/15 11:00:08;;;;;;;25.20;11.00;;;;;;;;;;6176828;23;20173;-90
2022/11/15 11:03:34;;;;;;;27.58;11.18;;;;;;;;;;6179279;23;20196;-90
2022/11/15 11:06:48;;;;;;;28.75;12.20;;;;;;;;;;6175907;23;20172;-91
2022/11/15 11:09:59;;;;;;;39.55;17.58;;;;;;;;;;6176416;23;20188;-91
2022/11/15 11:13:15;;;;;;;26.45;11.32;;;;;;;;;;6174622;23;20188;-91
2022/11/15 11:16:33;;;;;;;26.98;11.68;;;;;;;;;;6175442;23;20214;-91
2022/11/15 11:19:47;;;;;;;24.70;11.13;;;;;;;;;;6173496;23;20193;-89
2022/11/15 11:22:58;;;;;;;27.02;12.23;;;;;;;;;;6172656;23;20208;-90
2022/11/15 11:26:07;;;;;;;26.65;12.07;;;;;;;;;;6172986;23;20185;-91
2022/11/15 11:29:23;;;;;;;23.52;11.20;;;;;;;;;;6173320;23;20241;-93
2022/11/15 11:32:35;;;;;;;21.33;11.20;;;;;;;;;;6174528;23;20160;-90
2022/11/15 11:35:57;;;;;;;24.98;11.57;;;;;;;;;;6175863;23;20172;-89
2022/11/15 11:39:15;;;;;;;27.65;12.32;;;;;;;;;;6175557;23;20244;-91
2022/11/15 11:42:28;;;;;;;29.30;13.15;;;;;;;;;;6175665;23;20652;-90
2022/11/15 11:45:56;;;;;;;29.55;14.65;;;;;;;;;;6175608;23;20169;-90
2022/11/15 11:49:05;;;;;;;34.53;15.10;;;;;;;;;;6173305;23;20194;-90
2022/11/15 11:52:12;;;;;;;38.53;15.25;;;;;;;;;;6174295;23;20176;-90
2022/11/15 11:55:25;;;;;;;36.33;16.02;;;;;;;;;;6173163;23;20233;-90
2022/11/15 11:58:35;;;;;;;35.45;16.13;;;;;;;;;;6171939;23;20272;-89
2022/11/15 12:01:44;;;;;;;34.22;15.05;;;;;;;;;;6171797;23;20229;-91
2022/11/15 12:04:52;;;;;;;36.97;14.80;;;;;;;;;;6173370;23;20169;-90
2022/11/15 12:08:06;;;;;;;30.60;14.85;;;;;;;;;;6174711;23;20169;-89
2022/11/15 12:11:19;;;;;;;32.13;14.10;;;;;;;;;;6173855;23;20164;-90
2022/11/15 13:19:05;;;;;;;35.15;13.95;;;;;;;;;;6132424;23;20312;-89
2022/11/15 13:25:52;;;;;;;34.20;15.65;;;;;;;;;;6172851;23;20208;-88
2022/11/15 13:29:00;;;;;;;42.75;16.25;;;;;;;;;;6177462;23;20197;-90
2022/11/15 13:35:28;;;;;;;35.95;16.60;;;;;;;;;;6175627;23;20667;-89
2022/11/15 13:38:35;;;;;;;43.95;17.40;;;;;;;;;;6174767;23;20772;-89
2022/11/15 13:41:47;;;;;;;38.67;17.30;;;;;;;;;;6173498;23;20173;-91
2022/11/15 13:44:58;;;;;;;42.83;17.70;;;;;;;;;;6174989;23;20239;-91
2022/11/15 13:48:06;;;;;;;39.20;17.25;;;;;;;;;;6176217;23;20172;-89
2022/11/15 13:51:17;;;;;;;42.17;17.80;;;;;;;;;;6174683;23;20176;-89
2022/11/15 13:54:25;;;;;;;46.25;19.02;;;;;;;;;;6172250;23;20259;-90
2022/11/15 13:57:33;;;;;;;45.30;17.77;;;;;;;;;;6172695;23;20161;-92
2022/11/15 14:00:39;;;;;;;43.92;18.95;;;;;;;;;;6172897;23;20293;-91
2022/11/15 14:03:49;;;;;;;44.10;19.25;;;;;;;;;;6171208;23;20184;-89
2022/11/15 14:06:57;;;;;;;47.70;19.80;;;;;;;;;;6173437;23;20185;-90
2022/11/15 14:10:17;;;;;;;43.25;18.95;;;;;;;;;;6171335;23;20172;-88
2022/11/15 14:13:29;;;;;;;50.38;19.88;;;;;;;;;;6172438;23;20608;-90
2022/11/15 14:16:36;;;;;;;47.10;19.10;;;;;;;;;;6172983;23;20184;-90
2022/11/15 14:19:42;;;;;;;48.30;19.17;;;;;;;;;;6173015;23;20212;-90
2022/11/15 14:22:59;;;;;;;41.85;17.88;;;;;;;;;;6173153;23;20193;-91
2022/11/15 14:26:07;;;;;;;45.65;19.10;;;;;;;;;;6175310;23;20201;-89
2022/11/15 14:29:28;;;;;;;43.13;18.48;;;;;;;;;;6174018;23;20169;-89
2022/11/15 14:32:46;;;;;;;45.22;18.92;;;;;;;;;;6171855;23;20156;-89
2022/11/15 14:35:54;;;;;;;46.00;20.63;;;;;;;;;;6171775;23;20177;-91
2022/11/15 14:39:05;;;;;;;61.10;27.25;;;;;;;;;;6173820;23;20184;-89
2022/11/15 14:42:20;;;;;;;49.67;21.25;;;;;;;;;;6174616;23;20168;-90
2022/11/15 14:45:40;;;;;;;48.50;19.40;;;;;;;;;;6173231;23;20181;-90
2022/11/15 14:48:45;;;;;;;43.15;18.02;;;;;;;;;;6175468;23;20156;-90
2022/11/15 14:51:51;;;;;;;39.08;16.67;;;;;;;;;;6175974;23;20208;-90
2022/11/15 14:54:59;;;;;;;49.38;19.42;;;;;;;;;;6175363;23;20212;-89
2022/11/15 14:58:07;;;;;;;49.63;19.67;;;;;;;;;;6178163;23;20165;-92
2022/11/15 15:01:14;;;;;;;39.67;17.58;;;;;;;;;;6175395;23;20174;-91
2022/11/15 15:04:19;;;;;;;45.45;19.70;;;;;;;;;;6175983;23;20168;-92
2022/11/15 23:13:41;;;;;;;43.33;14.83;;;;;;;;;;6112469;23;20174;-91
2022/11/15 23:20:07;;;;;;;32.30;14.07;;;;;;;;;;6114731;23;20305;-89
2022/11/15 23:23:12;;;;;;;33.50;14.40;;;;;;;;;;6116305;23;20182;-88
2022/11/15 23:26:19;;;;;;;35.70;14.33;;;;;;;;;;6114072;23;20165;-91
2022/11/15 23:29:26;;;;;;;41.80;15.50;;;;;;;;;;6098981;23;20217;-90
2022/11/15 23:35:55;;;;;;;38.53;15.33;;;;;;;;;;6114423;23;20158;-89
2022/11/15 23:39:03;;;;;;;40.53;16.77;;;;;;;;;;6113843;23;20241;-90
2022/11/15 23:42:18;;;;;;;38.10;15.87;;;;;;;;;;6114915;23;20191;-92
2022/11/15 23:45:23;;;;;;;36.43;16.73;;;;;;;;;;6114432;23;20174;-91
2022/11/15 23:48:29;;;;;;;42.10;15.50;;;;;;;;;;6115313;23;20185;-90
2022/11/15 23:51:36;;;;;;;35.07;14.80;;;;;;;;;;6115038;23;20177;-88
2022/11/15 23:54:42;;;;;;;37.50;14.60;;;;;;;;;;6115610;23;20169;-88
2022/11/15 23:57:48;;;;;;;31.33;13.10;;;;;;;;;;6115249;23;20170;-89
